createdAt,value
2019-01-05T00:00:39.405Z,4.63
2019-01-05T00:03:30.203Z,3.50
2019-01-05T00:06:23.268Z,1.90
2019-01-05T00:09:09.378Z,5.00
2019-01-05T00:12:14.759Z,2.20
2019-01-05T00:15:01.792Z,3.70
2019-01-05T00:17:53.278Z,2.80
2019-01-05T00:20:39.292Z,1.97
2019-01-05T00:23:35.917Z,2.00
2019-01-05T00:26:23.103Z,2.70
2019-01-05T00:29:09.134Z,2.47
2019-01-05T00:32:08.980Z,1.77
2019-01-05T00:35:08.559Z,3.13
2019-01-05T00:37:50.910Z,1.63
2019-01-05T00:40:37.259Z,2.63
2019-01-05T00:43:35.426Z,2.57
2019-01-05T00:46:22.313Z,1.40
2019-01-05T00:49:18.158Z,2.90
2019-01-05T00:52:10.870Z,1.57
2019-01-05T00:55:01.114Z,1.77
2019-01-05T00:57:47.975Z,1.40
2019-01-05T01:00:53.626Z,1.97
2019-01-05T01:03:39.695Z,1.97
2019-01-05T01:06:32.654Z,2.57
2019-01-05T01:09:18.591Z,1.63
2019-01-05T01:12:00.534Z,2.30
2019-01-05T01:14:46.518Z,3.00
2019-01-05T01:17:32.455Z,4.33
2019-01-05T01:20:11.690Z,6.80
2019-01-05T01:23:03.150Z,3.90
2019-01-05T01:26:04.934Z,3.27
2019-01-05T01:28:51.263Z,1.57
2019-01-05T01:31:37.135Z,2.23
2019-01-05T01:34:33.201Z,1.40
2019-01-05T01:37:29.567Z,3.40
2019-01-05T01:40:22.918Z,5.30
2019-01-05T01:43:09.141Z,2.83
2019-01-05T01:46:10.916Z,3.43
2019-01-05T01:49:05.143Z,2.93
2019-01-05T01:52:07.642Z,4.03
2019-01-05T01:54:53.165Z,4.87
2019-01-05T01:57:45.978Z,5.30
2019-01-05T02:00:33.879Z,4.73
2019-01-05T02:03:21.596Z,6.77
2019-01-05T02:06:07.286Z,7.50
2019-01-05T02:09:09.474Z,6.63
2019-01-05T02:12:05.614Z,6.10
2019-01-05T02:15:15.010Z,6.83
2019-01-05T02:22:34.954Z,8.90
2019-01-05T02:26:04.482Z,6.60
2019-01-05T02:29:36.980Z,6.73
2019-01-05T02:33:17.929Z,10.70
2019-01-05T02:36:41.031Z,6.70
2019-01-05T02:40:11.183Z,8.00
2019-01-05T02:43:45.234Z,7.87
2019-01-05T02:47:06.590Z,6.77
2019-01-05T02:50:27.904Z,5.30
2019-01-05T02:53:59.590Z,9.03
2019-01-05T02:57:14.227Z,6.53
2019-01-05T03:00:41.405Z,9.13
2019-01-05T03:03:56.449Z,5.43
2019-01-05T03:07:19.740Z,5.90
2019-01-05T03:10:23.577Z,4.50
2019-01-05T03:13:36.129Z,6.33
2019-01-05T03:17:08.704Z,4.80
2019-01-05T03:20:28.344Z,2.90
2019-01-05T03:23:41.810Z,4.80
2019-01-05T03:27:12.395Z,3.77
2019-01-05T03:30:25.115Z,5.30
2019-01-05T03:33:58.286Z,11.43
2019-01-05T03:37:13.632Z,8.03
2019-01-05T03:41:08.756Z,7.23
2019-01-05T03:44:27.475Z,10.60
2019-01-05T03:47:50.072Z,9.63
2019-01-05T03:51:03.762Z,6.70
2019-01-05T03:54:31.371Z,11.60
2019-01-05T03:58:10.275Z,7.73
2019-01-05T04:01:12.234Z,7.53
2019-01-05T04:04:46.575Z,5.90
2019-01-05T04:08:05.627Z,10.40
2019-01-05T04:11:27.554Z,7.27
2019-01-05T04:15:02.734Z,13.27
2019-01-05T04:18:24.160Z,9.40
2019-01-05T04:21:56.112Z,3.40
2019-01-05T04:25:25.145Z,3.90
2019-01-05T04:28:53.120Z,5.43
2019-01-05T04:32:16.231Z,7.00
2019-01-05T04:35:35.230Z,6.00
2019-01-05T04:39:12.457Z,5.03
2019-01-05T04:42:26.133Z,4.97
2019-01-05T04:45:58.723Z,7.10
2019-01-05T04:49:21.558Z,5.47
2019-01-05T04:53:01.422Z,7.73
2019-01-05T04:56:56.441Z,17.17
2019-01-05T05:00:25.738Z,17.33
2019-01-05T05:04:02.236Z,13.03
2019-01-05T05:07:18.797Z,16.70
2019-01-05T05:10:47.413Z,10.60
2019-01-05T05:14:16.593Z,19.00
2019-01-05T05:17:28.088Z,17.90
2019-01-05T05:21:33.471Z,16.90
2019-01-05T05:25:02.554Z,23.83
2019-01-05T05:28:41.471Z,24.47
2019-01-05T05:32:20.558Z,27.53
2019-01-05T05:35:52.872Z,22.83
2019-01-05T05:39:25.625Z,29.50
2019-01-05T05:42:53.355Z,30.50
2019-01-05T05:46:51.130Z,28.57
2019-01-05T05:50:09.354Z,26.77
2019-01-05T05:53:36.014Z,32.50
2019-01-05T05:56:50.484Z,42.30
2019-01-05T06:00:17.870Z,32.47
2019-01-05T06:03:51.578Z,29.37
2019-01-05T06:07:07.617Z,25.90
2019-01-05T06:10:50.385Z,25.83
2019-01-05T06:14:25.946Z,29.10
2019-01-05T06:17:48.774Z,20.77
2019-01-05T06:21:09.946Z,28.97
2019-01-05T06:24:40.723Z,38.40
2019-01-05T06:28:09.214Z,25.90
2019-01-05T06:31:29.083Z,28.63
2019-01-05T06:34:33.502Z,21.03
2019-01-05T06:38:01.027Z,29.40
2019-01-05T06:41:16.361Z,28.97
2019-01-05T06:44:35.666Z,24.30
2019-01-05T06:48:29.853Z,24.93
2019-01-05T06:55:46.874Z,15.07
2019-01-05T06:59:11.180Z,11.73
2019-01-05T07:02:27.303Z,14.13
2019-01-05T07:05:46.422Z,12.03
2019-01-05T07:09:13.326Z,17.60
2019-01-05T07:12:40.943Z,15.20
2019-01-05T07:16:09.522Z,17.27
2019-01-05T07:19:35.956Z,23.27
2019-01-05T07:23:02.481Z,18.53
2019-01-05T07:26:29.283Z,20.30
2019-01-05T07:29:51.989Z,18.97
2019-01-05T07:33:35.067Z,23.80
2019-01-05T07:37:18.269Z,19.90
2019-01-05T07:40:55.496Z,17.60
2019-01-05T07:44:28.343Z,14.10
2019-01-05T07:47:59.170Z,16.57
2019-01-05T07:51:29.046Z,13.77
2019-01-05T07:54:56.286Z,18.63
2019-01-05T07:58:26.423Z,16.97
2019-01-05T08:01:59.644Z,11.33
2019-01-05T08:05:44.574Z,20.00
2019-01-05T08:09:23.615Z,12.80
2019-01-05T08:13:00.853Z,16.43
2019-01-05T08:16:44.843Z,13.73
2019-01-05T08:20:19.359Z,9.93
2019-01-05T08:23:29.107Z,16.87
2019-01-05T08:27:11.818Z,13.50
2019-01-05T08:30:44.517Z,12.13
2019-01-05T08:34:18.883Z,16.53
2019-01-05T08:37:50.135Z,11.30
2019-01-05T08:41:23.086Z,10.73
2019-01-05T08:45:21.110Z,17.93
2019-01-05T08:48:51.562Z,11.23
2019-01-05T08:52:14.935Z,8.40
2019-01-05T08:55:58.003Z,14.90
2019-01-05T08:59:34.448Z,7.93
2019-01-05T09:02:57.807Z,13.10
2019-01-05T09:06:40.300Z,12.00
2019-01-05T09:10:30.450Z,13.93
2019-01-05T09:14:17.408Z,9.83
2019-01-05T09:17:47.338Z,9.03
2019-01-05T09:20:58.052Z,16.70
2019-01-05T09:24:20.718Z,7.70
2019-01-05T09:27:50.143Z,8.37
2019-01-05T09:31:33.214Z,9.33
2019-01-05T09:35:05.042Z,9.70
2019-01-05T09:38:32.479Z,14.03
2019-01-05T09:42:43.674Z,9.10
2019-01-05T09:45:59.423Z,9.57
2019-01-05T09:49:32.374Z,9.83
2019-01-05T09:53:09.424Z,7.77
2019-01-05T09:56:43.365Z,9.80
2019-01-05T10:00:09.538Z,9.67
2019-01-05T10:03:56.887Z,10.87
2019-01-05T10:07:29.218Z,10.77
2019-01-05T10:11:24.839Z,7.27
2019-01-05T10:15:01.202Z,7.23
2019-01-05T10:18:24.810Z,11.13
2019-01-05T10:21:45.964Z,9.00
2019-01-05T10:25:22.344Z,4.93
2019-01-05T10:29:10.914Z,7.43
2019-01-05T10:32:47.502Z,5.70
2019-01-05T10:36:10.755Z,13.43
2019-01-05T10:39:41.332Z,7.53
2019-01-05T10:43:21.294Z,14.50
2019-01-05T10:46:56.077Z,16.53
2019-01-05T10:50:01.560Z,6.00
2019-01-05T10:53:26.702Z,10.17
2019-01-05T10:56:49.893Z,11.30
2019-01-05T10:59:47.019Z,12.00
2019-01-05T11:03:03.836Z,12.40
2019-01-05T11:06:42.822Z,13.30
2019-01-05T11:10:00.429Z,12.53
2019-01-05T11:13:19.131Z,15.53
2019-01-05T11:16:52.973Z,20.80
2019-01-05T11:20:21.525Z,16.87
2019-01-05T11:23:50.695Z,9.77
2019-01-05T11:27:47.175Z,11.73
2019-01-05T11:31:06.798Z,9.23
2019-01-05T11:34:29.375Z,8.60
2019-01-05T11:38:05.138Z,10.00
2019-01-05T11:41:37.425Z,13.13
2019-01-05T11:44:56.610Z,12.97
2019-01-05T11:48:18.689Z,14.70
2019-01-05T11:51:46.492Z,12.03
2019-01-05T11:55:17.744Z,14.57
2019-01-05T11:58:37.131Z,13.27
2019-01-05T12:02:22.510Z,20.73
2019-01-05T12:06:08.220Z,9.90
2019-01-05T12:09:36.757Z,12.57
2019-01-05T12:13:07.758Z,19.53
2019-01-05T12:16:42.171Z,15.37
2019-01-05T12:20:13.238Z,11.43
2019-01-05T12:23:28.100Z,10.67
2019-01-05T12:26:55.898Z,12.10
2019-01-05T12:30:21.612Z,13.80
2019-01-05T12:33:56.138Z,17.50
2019-01-05T12:37:49.011Z,12.40
2019-01-05T12:41:21.735Z,13.80
2019-01-05T12:45:08.246Z,12.43
2019-01-05T12:48:38.099Z,16.83
2019-01-05T12:52:02.262Z,10.37
2019-01-05T12:55:35.403Z,14.83
2019-01-05T12:59:05.325Z,15.33
2019-01-05T13:02:26.278Z,13.40
2019-01-05T13:06:05.069Z,21.37
2019-01-05T13:09:53.397Z,20.27
2019-01-05T13:13:19.736Z,27.33
2019-01-05T13:16:54.282Z,23.57
2019-01-05T13:20:12.906Z,16.03
2019-01-05T13:23:36.243Z,19.40
2019-01-05T13:26:44.162Z,20.60
2019-01-05T13:30:17.026Z,18.77
2019-01-05T13:33:40.288Z,20.50
2019-01-05T13:37:02.980Z,20.10
2019-01-05T13:40:17.681Z,23.50
2019-01-05T13:43:20.735Z,28.47
2019-01-05T13:47:23.858Z,21.87
2019-01-05T13:50:49.946Z,26.57
2019-01-05T13:53:53.489Z,18.43
2019-01-05T13:56:43.338Z,11.60
2019-01-05T13:59:42.450Z,19.10
2019-01-05T14:02:32.174Z,26.03
2019-01-05T14:05:18.351Z,17.87
2019-01-05T14:08:17.101Z,26.20
2019-01-05T14:11:15.415Z,19.83
2019-01-05T14:14:00.852Z,16.80
2019-01-05T14:16:47.878Z,13.67
2019-01-05T14:19:40.551Z,17.67
2019-01-05T14:22:27.534Z,14.80
2019-01-05T14:25:12.947Z,18.70
2019-01-05T14:27:56.930Z,17.17
2019-01-05T14:30:42.995Z,28.33
2019-01-05T14:33:38.711Z,22.70
2019-01-05T14:36:46.176Z,21.93
2019-01-05T14:39:38.979Z,19.57
2019-01-05T14:42:43.804Z,17.67
2019-01-05T14:45:36.822Z,19.47
2019-01-05T14:48:22.318Z,20.73
2019-01-05T14:51:17.550Z,19.90
2019-01-05T14:54:19.814Z,21.13
2019-01-05T14:57:05.666Z,25.13
2019-01-05T14:59:52.906Z,21.43
2019-01-05T15:02:54.964Z,19.50
2019-01-05T15:05:54.024Z,21.73
2019-01-05T15:08:59.922Z,19.93
2019-01-05T15:11:49.634Z,16.43
2019-01-05T15:14:37.043Z,18.03
2019-01-05T15:17:22.523Z,23.73
2019-01-05T15:20:20.176Z,20.90
2019-01-05T15:23:07.221Z,23.10
2019-01-05T15:26:02.734Z,17.37
2019-01-05T15:28:48.334Z,28.07
2019-01-05T15:31:41.470Z,22.33
2019-01-05T15:34:28.691Z,29.03
2019-01-05T15:37:27.895Z,19.73
2019-01-05T15:40:16.678Z,26.90
2019-01-05T15:43:03.806Z,26.07
2019-01-05T15:45:49.715Z,20.63
2019-01-05T15:48:48.499Z,33.30
2019-01-05T15:51:54.170Z,32.10
2019-01-05T15:54:50.366Z,22.00
2019-01-05T15:57:36.069Z,24.63
2019-01-05T16:00:33.689Z,30.17
2019-01-05T16:03:14.350Z,20.90
2019-01-05T16:06:00.148Z,25.83
2019-01-05T16:08:45.994Z,27.10
2019-01-05T16:11:42.370Z,20.13
2019-01-05T16:14:35.994Z,23.43
2019-01-05T16:17:31.787Z,17.80
2019-01-05T16:20:31.010Z,22.47
2019-01-05T16:23:12.568Z,20.90
2019-01-05T16:26:05.371Z,23.57
2019-01-05T16:28:50.717Z,14.17
2019-01-05T16:31:56.126Z,22.73
2019-01-05T16:34:41.696Z,15.67
2019-01-05T16:37:23.455Z,18.90
2019-01-05T16:40:22.234Z,13.93
2019-01-05T16:43:04.986Z,26.80
2019-01-05T16:45:45.381Z,16.37
2019-01-05T16:48:30.910Z,19.43
2019-01-05T16:51:21.774Z,16.50
2019-01-05T16:54:11.543Z,15.57
2019-01-05T16:56:57.980Z,26.50
2019-01-05T16:59:39.209Z,15.77
2019-01-05T17:02:35.279Z,16.93
2019-01-05T17:05:21.150Z,22.07
2019-01-05T17:08:02.930Z,12.20
2019-01-05T17:10:48.572Z,14.60
2019-01-05T17:13:39.198Z,16.13
2019-01-05T17:16:24.639Z,12.40
2019-01-05T17:19:19.088Z,12.30
2019-01-05T17:22:00.139Z,10.20
2019-01-05T17:24:46.391Z,12.77
2019-01-05T17:27:31.671Z,9.20
2019-01-05T17:30:12.229Z,11.40
2019-01-05T17:32:57.869Z,8.93
2019-01-05T17:35:47.935Z,5.50
2019-01-05T17:38:34.963Z,6.83
2019-01-05T17:41:20.602Z,4.67
2019-01-05T17:44:07.551Z,5.00
2019-01-05T17:46:54.666Z,9.43
2019-01-05T17:49:56.482Z,5.10
2019-01-05T17:52:49.565Z,7.70
2019-01-05T17:55:36.739Z,8.57
2019-01-05T17:58:26.452Z,11.17
2019-01-05T18:01:28.264Z,9.90
2019-01-05T18:04:17.842Z,7.33
2019-01-05T18:06:59.274Z,9.23
2019-01-05T18:09:45.287Z,9.17
2019-01-05T18:12:32.330Z,9.07
2019-01-05T18:15:45.682Z,11.17
2019-01-05T18:18:31.053Z,9.03
2019-01-05T18:21:18.061Z,10.37
2019-01-05T18:24:15.362Z,11.33
2019-01-05T18:26:59.990Z,13.63
2019-01-05T18:29:45.501Z,15.40
2019-01-05T18:32:30.843Z,11.20
2019-01-05T18:35:31.279Z,13.03
2019-01-05T18:38:27.307Z,14.50
2019-01-05T18:41:13.214Z,7.30
2019-01-05T18:44:09.366Z,9.37
2019-01-05T18:47:02.795Z,16.60
2019-01-05T18:49:40.557Z,9.40
2019-01-05T18:52:42.677Z,10.50
2019-01-05T18:55:44.631Z,11.33
2019-01-05T18:58:46.827Z,9.30
2019-01-05T19:01:48.645Z,10.70
2019-01-05T19:04:28.893Z,10.73
2019-01-05T19:07:15.941Z,11.77
2019-01-05T19:10:11.638Z,14.17
2019-01-05T19:13:01.587Z,12.50
2019-01-05T19:15:47.472Z,15.17
2019-01-05T19:18:33.158Z,8.47
2019-01-05T19:21:18.909Z,8.30
2019-01-05T19:24:04.760Z,9.40
2019-01-05T19:26:46.177Z,12.10
2019-01-05T19:29:40.059Z,15.13
2019-01-05T19:32:28.190Z,9.70
2019-01-05T19:35:14.089Z,7.60
2019-01-05T19:38:23.375Z,8.33
2019-01-05T19:41:08.977Z,7.70
2019-01-05T19:43:56.148Z,7.23
2019-01-05T19:47:14.272Z,6.00
2019-01-05T19:49:51.150Z,11.27
2019-01-05T19:52:56.495Z,14.90
2019-01-05T19:55:37.776Z,10.27
2019-01-05T19:58:27.296Z,6.97
2019-01-05T20:01:14.694Z,7.10
2019-01-05T20:04:07.953Z,7.93
2019-01-05T20:07:03.925Z,12.50
2019-01-05T20:09:50.159Z,5.90
2019-01-05T20:12:37.583Z,9.80
2019-01-05T20:15:41.087Z,5.97
2019-01-05T20:18:34.639Z,6.33
2019-01-05T20:21:22.361Z,5.93
2019-01-05T20:24:08.426Z,8.30
2019-01-05T20:26:54.690Z,9.50
2019-01-05T20:29:36.809Z,7.57
2019-01-05T20:32:22.957Z,7.30
2019-01-05T20:35:22.952Z,6.83
2019-01-05T20:38:00.690Z,8.67
2019-01-05T20:40:47.956Z,9.60
2019-01-05T20:43:38.102Z,9.77
2019-01-05T20:46:28.372Z,9.27
2019-01-05T20:49:11.055Z,6.10
2019-01-05T20:52:22.836Z,9.60
2019-01-05T20:55:14.796Z,9.70
2019-01-05T20:58:00.769Z,11.77
2019-01-05T21:00:51.904Z,12.40
2019-01-05T21:03:57.199Z,13.20
2019-01-05T21:06:53.813Z,7.50
2019-01-05T21:09:40.611Z,7.13
2019-01-05T21:12:26.434Z,9.33
2019-01-05T21:15:31.570Z,13.80
2019-01-05T21:18:32.469Z,10.03
2019-01-05T21:21:28.444Z,9.60
2019-01-05T21:24:21.467Z,12.90
2019-01-05T21:27:07.280Z,13.27
2019-01-05T21:29:52.007Z,7.73
2019-01-05T21:32:56.915Z,9.10
2019-01-05T21:35:44.277Z,11.33
2019-01-05T21:39:03.653Z,10.53
2019-01-05T21:41:51.143Z,9.53
2019-01-05T21:44:36.870Z,12.00
2019-01-05T21:47:22.539Z,15.07
2019-01-05T21:50:12.282Z,9.80
2019-01-05T21:52:59.426Z,8.97
2019-01-05T21:55:45.398Z,10.27
2019-01-05T21:58:38.362Z,10.00
2019-01-05T22:01:37.382Z,8.47
2019-01-05T22:04:23.027Z,10.20
2019-01-05T22:07:03.126Z,9.00
2019-01-05T22:09:52.924Z,10.40
2019-01-05T22:12:41.703Z,8.40
2019-01-05T22:15:46.826Z,8.60
2019-01-05T22:18:32.794Z,8.67
2019-01-05T22:21:25.978Z,5.80
2019-01-05T22:24:11.565Z,6.70
2019-01-05T22:26:50.854Z,8.23
2019-01-05T22:29:33.784Z,7.13
2019-01-05T22:32:17.512Z,6.47
2019-01-05T22:35:11.907Z,7.30
2019-01-05T22:38:11.463Z,9.10
2019-01-05T22:41:01.311Z,8.70
2019-01-05T22:43:51.348Z,9.13
2019-01-05T22:46:44.710Z,7.70
2019-01-05T22:49:30.651Z,8.13
2019-01-05T22:52:20.536Z,8.17
2019-01-05T22:55:06.105Z,4.97
2019-01-05T22:57:47.337Z,8.27
2019-01-05T23:00:32.815Z,8.37
2019-01-05T23:03:19.276Z,5.87
2019-01-05T23:06:21.614Z,4.20
2019-01-05T23:09:09.093Z,8.93
2019-01-05T23:11:55.803Z,8.20
2019-01-05T23:14:52.190Z,7.77
2019-01-05T23:17:39.336Z,9.97
2019-01-05T23:20:24.604Z,10.83
2019-01-05T23:23:20.457Z,14.90
2019-01-05T23:26:07.053Z,8.40
2019-01-05T23:29:03.349Z,12.07
2019-01-05T23:31:56.271Z,12.07
2019-01-05T23:34:37.600Z,8.63
2019-01-05T23:37:23.037Z,8.37
2019-01-05T23:40:08.676Z,9.57
2019-01-05T23:42:58.366Z,9.53
2019-01-05T23:45:54.357Z,9.17
2019-01-05T23:48:49.818Z,12.73
2019-01-05T23:51:37.783Z,11.07
2019-01-05T23:54:31.604Z,10.90
2019-01-05T23:57:25.004Z,12.13
